createdAt,value
2023-05-05T00:00:05.921Z,4.47
2023-05-05T00:02:33.649Z,4.65
2023-05-05T00:05:03.191Z,4.60
2023-05-05T00:07:30.683Z,4.40
2023-05-05T00:09:58.126Z,3.90
2023-05-05T00:12:25.570Z,4.35
2023-05-05T00:14:53.036Z,4.28
2023-05-05T00:17:20.496Z,4.72
2023-05-05T00:19:47.960Z,4.32
2023-05-05T00:22:16.804Z,4.32
2023-05-05T00:24:44.226Z,4.45
2023-05-05T00:27:11.651Z,4.63
2023-05-05T00:29:39.208Z,4.72
2023-05-05T00:32:06.802Z,4.70
2023-05-05T00:34:34.280Z,3.95
2023-05-05T00:37:01.769Z,4.63
2023-05-05T00:39:30.611Z,4.32
2023-05-05T00:41:59.436Z,4.78
2023-05-05T00:44:37.619Z,4.28
2023-05-05T00:47:05.347Z,4.60
2023-05-05T00:49:33.700Z,4.30
2023-05-05T00:52:01.313Z,4.45
2023-05-05T00:54:30.210Z,4.50
2023-05-05T00:56:57.892Z,4.75
2023-05-05T00:59:25.395Z,4.93
2023-05-05T01:01:52.924Z,4.65
2023-05-05T01:04:20.342Z,4.82
2023-05-05T01:06:55.482Z,4.93
2023-05-05T01:09:32.740Z,4.18
2023-05-05T01:12:08.584Z,3.97
2023-05-05T01:14:40.842Z,4.03
2023-05-05T01:17:15.773Z,4.35
2023-05-05T01:19:54.449Z,4.55
2023-05-05T01:22:35.469Z,4.30
2023-05-05T01:25:21.668Z,4.60
2023-05-05T01:28:09.335Z,4.20
2023-05-05T01:30:54.146Z,4.38
2023-05-05T01:33:26.116Z,4.40
2023-05-05T01:35:56.484Z,4.47
2023-05-05T01:38:26.169Z,4.45
2023-05-05T01:41:00.796Z,4.18
2023-05-05T01:43:30.736Z,4.72
2023-05-05T01:45:58.594Z,4.57
2023-05-05T01:48:27.517Z,4.85
2023-05-05T01:50:55.109Z,4.38
2023-05-05T01:53:24.142Z,3.88
2023-05-05T01:55:52.083Z,4.22
2023-05-05T01:58:20.355Z,4.03
2023-05-05T02:00:48.776Z,4.40
2023-05-05T02:03:16.944Z,4.15
2023-05-05T02:05:48.586Z,4.60
2023-05-05T02:08:16.731Z,3.90
2023-05-05T02:10:45.682Z,4.30
2023-05-05T02:13:13.657Z,4.57
2023-05-05T02:15:41.978Z,4.68
2023-05-05T02:18:10.710Z,4.28
2023-05-05T02:20:38.772Z,4.13
2023-05-05T02:23:08.098Z,4.22
2023-05-05T02:25:38.398Z,4.57
2023-05-05T02:28:06.524Z,4.85
2023-05-05T02:30:35.824Z,4.50
2023-05-05T02:33:07.831Z,5.05
2023-05-05T02:35:37.422Z,4.38
2023-05-05T02:38:08.372Z,5.22
2023-05-05T02:40:36.403Z,3.45
2023-05-05T02:43:06.222Z,4.57
2023-05-05T02:45:34.073Z,4.38
2023-05-05T02:48:03.392Z,4.50
2023-05-05T02:50:30.998Z,4.78
2023-05-05T02:52:58.796Z,4.38
2023-05-05T02:55:27.866Z,5.53
2023-05-05T02:58:01.866Z,4.32
2023-05-05T03:00:35.461Z,4.40
2023-05-05T03:03:07.468Z,4.93
2023-05-05T03:05:39.247Z,5.00
2023-05-05T03:08:11.882Z,5.20
2023-05-05T03:10:45.451Z,4.47
2023-05-05T03:13:13.416Z,3.85
2023-05-05T03:15:44.394Z,4.88
2023-05-05T03:18:12.354Z,4.40
2023-05-05T03:20:40.520Z,5.25
2023-05-05T03:23:08.682Z,4.80
2023-05-05T03:25:47.526Z,4.68
2023-05-05T03:28:15.652Z,5.57
2023-05-05T03:30:44.154Z,4.72
2023-05-05T03:33:11.824Z,4.78
2023-05-05T03:35:39.373Z,4.30
2023-05-05T03:38:06.990Z,5.03
2023-05-05T03:40:43.720Z,5.13
2023-05-05T03:43:13.414Z,4.75
2023-05-05T03:45:40.845Z,5.25
2023-05-05T03:48:09.646Z,4.65
2023-05-05T03:50:37.690Z,4.70
2023-05-05T03:53:05.248Z,5.53
2023-05-05T03:55:32.728Z,5.72
2023-05-05T03:58:00.171Z,6.25
2023-05-05T04:00:28.971Z,5.03
2023-05-05T04:02:56.505Z,4.78
2023-05-05T04:05:25.381Z,5.25
2023-05-05T04:07:53.012Z,5.38
2023-05-05T04:10:21.469Z,5.72
2023-05-05T04:12:49.020Z,6.13
2023-05-05T04:15:16.625Z,5.32
2023-05-05T04:17:45.558Z,5.43
2023-05-05T04:20:13.297Z,5.45
2023-05-05T04:22:40.851Z,5.65
2023-05-05T04:25:09.059Z,5.25
2023-05-05T04:27:36.580Z,5.38
2023-05-05T04:30:04.347Z,6.35
2023-05-05T04:32:31.919Z,6.57
2023-05-05T04:35:00.852Z,6.03
2023-05-05T04:37:28.296Z,6.38
2023-05-05T04:39:55.798Z,6.53
2023-05-05T04:42:23.356Z,6.70
2023-05-05T04:44:50.835Z,6.28
2023-05-05T04:47:18.288Z,5.15
2023-05-05T04:49:45.912Z,5.95
2023-05-05T04:52:14.745Z,5.47
2023-05-05T04:54:42.318Z,5.88
2023-05-05T04:57:18.725Z,5.63
2023-05-05T04:59:46.194Z,6.10
2023-05-05T05:02:13.790Z,5.05
2023-05-05T05:04:41.906Z,5.93
2023-05-05T05:07:09.369Z,6.30
2023-05-05T05:09:38.193Z,5.78
2023-05-05T05:12:07.904Z,5.35
2023-05-05T05:14:37.750Z,6.30
2023-05-05T05:17:05.309Z,5.32
2023-05-05T05:19:32.835Z,4.97
2023-05-05T05:22:00.268Z,5.55
2023-05-05T05:24:27.819Z,5.88
2023-05-05T05:26:56.648Z,6.15
2023-05-05T05:29:24.133Z,5.22
2023-05-05T05:31:51.670Z,5.72
2023-05-05T05:34:19.142Z,6.30
2023-05-05T05:36:46.582Z,9.77
2023-05-05T05:39:14.182Z,6.03
2023-05-05T05:41:41.645Z,5.82
2023-05-05T05:44:10.663Z,5.40
2023-05-05T05:46:38.218Z,5.60
2023-05-05T05:49:05.760Z,6.20
2023-05-05T05:51:33.226Z,5.35
2023-05-05T05:54:00.707Z,6.18
2023-05-05T05:56:28.215Z,5.60
2023-05-05T05:58:55.705Z,6.00
2023-05-05T06:01:24.464Z,5.88
2023-05-05T06:03:52.002Z,5.75
2023-05-05T06:06:19.588Z,6.22
2023-05-05T06:08:47.065Z,5.95
2023-05-05T06:11:14.505Z,6.63
2023-05-05T06:13:41.967Z,5.95
2023-05-05T06:16:09.558Z,5.53
2023-05-05T06:18:38.386Z,6.72
2023-05-05T06:21:06.265Z,6.22
2023-05-05T06:23:33.838Z,6.03
2023-05-05T06:26:01.294Z,6.75
2023-05-05T06:28:28.771Z,6.72
2023-05-05T06:30:56.482Z,6.75
2023-05-05T06:33:24.021Z,6.18
2023-05-05T06:35:54.383Z,7.00
2023-05-05T06:38:21.869Z,7.18
2023-05-05T06:40:50.386Z,6.32
2023-05-05T06:43:18.156Z,6.65
2023-05-05T06:45:46.052Z,6.50
2023-05-05T06:48:13.545Z,6.40
2023-05-05T06:50:41.028Z,6.28
2023-05-05T06:53:09.789Z,6.38
2023-05-05T06:55:37.523Z,7.47
2023-05-05T06:58:04.985Z,7.57
2023-05-05T07:00:32.499Z,6.18
2023-05-05T07:03:00.372Z,5.85
2023-05-05T07:05:27.974Z,6.10
2023-05-05T07:07:56.887Z,6.30
2023-05-05T07:10:26.270Z,5.82
2023-05-05T07:12:54.770Z,6.38
2023-05-05T07:15:28.649Z,6.22
2023-05-05T07:17:57.064Z,5.40
2023-05-05T07:20:25.214Z,6.25
2023-05-05T07:22:52.721Z,5.75
2023-05-05T07:25:20.612Z,5.90
2023-05-05T07:27:49.460Z,6.05
2023-05-05T07:30:18.840Z,6.35
2023-05-05T07:32:47.049Z,5.78
2023-05-05T07:35:14.861Z,5.78
2023-05-05T07:37:42.292Z,5.53
2023-05-05T07:40:10.604Z,5.50
2023-05-05T07:42:38.316Z,5.72
2023-05-05T07:45:08.434Z,5.13
2023-05-05T07:47:36.006Z,5.78
2023-05-05T07:50:03.586Z,5.97
2023-05-05T07:52:45.381Z,5.10
2023-05-05T07:55:17.336Z,5.55
2023-05-05T07:57:44.842Z,5.13
2023-05-05T08:00:16.527Z,4.85
2023-05-05T08:02:44.168Z,4.80
2023-05-05T08:05:12.680Z,4.80
2023-05-05T08:07:41.544Z,4.90
2023-05-05T08:10:10.908Z,5.53
2023-05-05T08:12:38.476Z,5.18
2023-05-05T08:15:09.172Z,5.05
2023-05-05T08:17:48.811Z,5.00
2023-05-05T08:20:16.791Z,4.97
2023-05-05T08:22:44.566Z,4.97
2023-05-05T08:25:13.186Z,4.85
2023-05-05T08:27:41.503Z,5.18
2023-05-05T08:30:10.265Z,5.40
2023-05-05T08:32:38.363Z,7.03
2023-05-05T08:35:08.296Z,5.13
2023-05-05T08:37:36.081Z,4.80
2023-05-05T08:40:03.645Z,5.25
2023-05-05T08:42:38.065Z,6.32
2023-05-05T08:45:08.544Z,4.93
2023-05-05T08:47:36.797Z,5.20
2023-05-05T08:50:05.994Z,5.40
2023-05-05T08:52:40.340Z,5.68
2023-05-05T08:55:15.252Z,5.25
2023-05-05T08:57:48.217Z,5.75
2023-05-05T09:00:16.861Z,5.30
2023-05-05T09:02:44.618Z,5.18
2023-05-05T09:05:12.181Z,4.90
2023-05-05T09:07:41.391Z,4.90
2023-05-05T09:10:11.084Z,4.68
2023-05-05T09:12:40.383Z,5.03
2023-05-05T09:15:09.959Z,5.05
2023-05-05T09:17:37.538Z,5.28
2023-05-05T09:20:07.220Z,5.18
2023-05-05T09:22:36.636Z,4.93
2023-05-05T09:25:15.606Z,4.88
2023-05-05T09:27:45.777Z,4.28
2023-05-05T09:30:16.056Z,4.70
2023-05-05T09:32:44.587Z,4.57
2023-05-05T09:35:12.320Z,4.15
2023-05-05T09:37:39.799Z,5.28
2023-05-05T09:40:10.109Z,4.68
2023-05-05T09:42:38.674Z,4.40
2023-05-05T09:45:25.916Z,4.28
2023-05-05T09:47:59.053Z,4.20
2023-05-05T09:50:30.522Z,4.43
2023-05-05T09:52:59.501Z,4.25
2023-05-05T09:55:28.385Z,5.10
2023-05-05T09:57:56.196Z,4.07
2023-05-05T10:00:38.776Z,4.90
2023-05-05T10:03:06.803Z,4.00
2023-05-05T10:05:34.355Z,4.55
2023-05-05T10:08:13.447Z,4.35
2023-05-05T10:10:47.930Z,4.35
2023-05-05T10:13:16.620Z,4.53
2023-05-05T10:15:44.992Z,4.55
2023-05-05T10:18:14.670Z,4.30
2023-05-05T10:20:43.222Z,4.35
2023-05-05T10:23:15.788Z,4.10
2023-05-05T10:25:51.991Z,4.78
2023-05-05T10:28:25.910Z,4.20
2023-05-05T10:30:55.492Z,4.70
2023-05-05T10:35:55.573Z,3.70
2023-05-05T10:38:24.804Z,3.90
2023-05-05T10:40:56.171Z,4.25
2023-05-05T10:43:24.450Z,4.00
2023-05-05T10:45:52.416Z,4.25
2023-05-05T10:48:28.526Z,5.25
2023-05-05T10:51:03.265Z,3.95
2023-05-05T10:53:35.261Z,4.05
2023-05-05T10:56:10.653Z,3.75
2023-05-05T10:58:55.626Z,4.18
2023-05-05T11:01:32.207Z,3.72
2023-05-05T11:04:18.025Z,4.13
2023-05-05T11:07:23.461Z,4.10
2023-05-05T11:10:01.797Z,3.90
2023-05-05T11:12:31.128Z,3.88
2023-05-05T11:15:37.853Z,3.65
2023-05-05T11:18:07.859Z,4.10
2023-05-05T11:21:19.142Z,4.30
2023-05-05T11:23:48.750Z,4.30
2023-05-05T11:26:17.168Z,3.80
2023-05-05T11:29:06.857Z,4.10
2023-05-05T11:31:34.582Z,4.47
2023-05-05T11:34:26.745Z,4.07
2023-05-05T11:37:01.638Z,3.38
2023-05-05T11:39:37.350Z,3.90
2023-05-05T11:42:18.559Z,3.30
2023-05-05T11:44:47.443Z,3.75
2023-05-05T11:47:29.248Z,4.10
2023-05-05T11:49:57.111Z,3.58
2023-05-05T11:52:26.467Z,4.15
2023-05-05T11:54:54.104Z,3.47
2023-05-05T11:57:27.973Z,3.67
2023-05-05T11:59:59.130Z,3.45
2023-05-05T12:02:27.898Z,3.75
2023-05-05T12:04:56.132Z,3.30
2023-05-05T12:07:25.598Z,3.65
2023-05-05T12:09:53.492Z,3.63
2023-05-05T12:12:21.186Z,3.17
2023-05-05T12:14:51.792Z,3.35
2023-05-05T12:17:21.658Z,3.65
2023-05-05T12:19:50.419Z,3.90
2023-05-05T12:22:22.391Z,3.60
2023-05-05T12:24:56.773Z,3.38
2023-05-05T12:27:24.655Z,3.50
2023-05-05T12:29:52.380Z,3.30
2023-05-05T12:32:22.270Z,3.13
2023-05-05T12:34:53.814Z,3.10
2023-05-05T12:37:21.833Z,3.03
2023-05-05T12:39:49.350Z,4.13
2023-05-05T12:42:17.086Z,3.30
2023-05-05T12:44:45.015Z,3.60
2023-05-05T12:47:13.319Z,2.83
2023-05-05T12:49:52.543Z,3.50
2023-05-05T12:52:20.872Z,3.17
2023-05-05T12:54:55.475Z,3.15
2023-05-05T12:57:23.480Z,3.75
2023-05-05T12:59:51.718Z,3.47
2023-05-05T13:02:19.676Z,3.17
2023-05-05T13:04:55.438Z,3.20
2023-05-05T13:07:23.186Z,3.20
2023-05-05T13:09:51.827Z,3.45
2023-05-05T13:12:19.691Z,3.05
2023-05-05T13:14:47.531Z,3.17
2023-05-05T13:17:15.544Z,3.10
2023-05-05T13:19:46.075Z,2.83
2023-05-05T13:22:16.382Z,2.70
2023-05-05T13:24:52.403Z,2.75
2023-05-05T13:27:20.863Z,2.90
2023-05-05T13:29:48.563Z,3.20
2023-05-05T13:32:16.098Z,2.97
2023-05-05T13:34:44.159Z,2.83
2023-05-05T13:37:11.733Z,2.88
2023-05-05T13:39:40.553Z,2.67
2023-05-05T13:42:08.152Z,2.90
2023-05-05T13:44:36.301Z,2.63
2023-05-05T13:47:04.160Z,3.33
2023-05-05T13:49:31.777Z,2.75
2023-05-05T13:51:59.305Z,3.20
2023-05-05T13:54:26.968Z,2.78
2023-05-05T13:56:55.744Z,3.20
2023-05-05T13:59:23.211Z,2.95
2023-05-05T14:01:50.714Z,2.78
2023-05-05T14:04:18.343Z,2.95
2023-05-05T14:06:45.913Z,3.00
2023-05-05T14:09:22.440Z,2.42
2023-05-05T14:11:49.932Z,2.80
2023-05-05T14:14:19.669Z,2.53
2023-05-05T14:16:49.436Z,6.53
2023-05-05T14:19:17.760Z,3.00
2023-05-05T14:21:45.189Z,2.72
2023-05-05T14:24:12.700Z,3.13
2023-05-05T14:26:40.224Z,2.88
2023-05-05T14:29:07.743Z,2.50
2023-05-05T14:31:36.830Z,2.60
2023-05-05T14:34:04.455Z,2.95
2023-05-05T14:36:32.161Z,4.90
2023-05-05T14:38:59.777Z,2.72
2023-05-05T14:41:36.590Z,2.70
2023-05-05T14:44:04.038Z,2.95
2023-05-05T14:46:31.836Z,2.72
2023-05-05T14:49:00.920Z,3.05
2023-05-05T14:51:28.384Z,3.15
2023-05-05T14:53:55.860Z,2.80
2023-05-05T14:56:24.509Z,2.60
2023-05-05T14:58:52.026Z,2.67
2023-05-05T15:01:20.588Z,2.60
2023-05-05T15:03:48.388Z,2.53
2023-05-05T15:06:17.241Z,2.85
2023-05-05T15:08:44.730Z,2.97
2023-05-05T15:11:12.216Z,2.53
2023-05-05T15:13:41.357Z,2.88
2023-05-05T15:16:09.436Z,2.80
2023-05-05T15:18:37.504Z,2.88
2023-05-05T15:21:05.451Z,2.90
2023-05-05T15:23:34.781Z,2.63
2023-05-05T15:26:02.518Z,2.88
2023-05-05T15:28:30.021Z,3.20
2023-05-05T15:30:57.595Z,2.80
2023-05-05T15:33:25.021Z,3.25
2023-05-05T15:35:52.538Z,3.15
2023-05-05T15:38:19.988Z,2.88
2023-05-05T15:40:50.288Z,3.17
2023-05-05T15:43:17.869Z,3.47
2023-05-05T15:45:45.934Z,3.00
2023-05-05T15:48:13.526Z,2.97
2023-05-05T15:50:41.024Z,4.32
2023-05-05T15:53:08.504Z,3.30
2023-05-05T15:55:36.261Z,3.20
2023-05-05T15:58:05.010Z,3.10
2023-05-05T16:00:32.517Z,2.53
2023-05-05T16:03:00.201Z,3.03
2023-05-05T16:05:27.775Z,4.97
2023-05-05T16:07:55.201Z,3.10
2023-05-05T16:10:22.711Z,2.95
2023-05-05T16:12:52.016Z,3.00
2023-05-05T16:15:21.400Z,3.25
2023-05-05T16:17:48.889Z,3.20
2023-05-05T16:20:16.437Z,3.40
2023-05-05T16:22:43.888Z,2.67
2023-05-05T16:25:11.521Z,3.08
2023-05-05T16:27:39.080Z,3.30
2023-05-05T16:30:08.798Z,3.65
2023-05-05T16:32:37.670Z,3.10
2023-05-05T16:35:07.340Z,3.70
2023-05-05T16:37:35.157Z,3.60
2023-05-05T16:40:05.432Z,3.53
2023-05-05T16:42:33.031Z,3.30
2023-05-05T16:45:00.747Z,3.30
2023-05-05T16:47:28.296Z,3.72
2023-05-05T16:49:57.265Z,3.42
2023-05-05T16:52:24.732Z,3.30
2023-05-05T16:54:55.583Z,3.75
2023-05-05T16:57:23.203Z,3.40
2023-05-05T16:59:50.969Z,3.22
2023-05-05T17:02:18.536Z,3.28
2023-05-05T17:04:45.976Z,3.33
2023-05-05T17:07:14.785Z,3.35
2023-05-05T17:09:42.250Z,3.25
2023-05-05T17:12:09.770Z,3.60
2023-05-05T17:14:37.251Z,3.15
2023-05-05T17:17:05.009Z,3.63
2023-05-05T17:19:32.605Z,4.13
2023-05-05T17:22:00.081Z,3.22
2023-05-05T17:24:28.943Z,3.45
2023-05-05T17:26:57.071Z,3.75
2023-05-05T17:29:24.625Z,3.50
2023-05-05T17:31:52.250Z,3.42
2023-05-05T17:34:19.835Z,3.53
2023-05-05T17:36:47.317Z,3.58
2023-05-05T17:39:14.801Z,3.50
2023-05-05T17:41:43.634Z,3.90
2023-05-05T17:44:11.144Z,3.55
2023-05-05T17:46:39.366Z,4.53
2023-05-05T17:49:06.863Z,3.40
2023-05-05T17:51:34.321Z,3.88
2023-05-05T17:54:01.787Z,3.55
2023-05-05T17:56:29.268Z,3.70
2023-05-05T17:58:58.155Z,4.03
2023-05-05T18:01:26.862Z,3.42
2023-05-05T18:03:54.520Z,3.95
2023-05-05T18:06:22.071Z,4.03
2023-05-05T18:08:49.675Z,3.75
2023-05-05T18:11:17.197Z,3.58
2023-05-05T18:13:44.738Z,3.90
2023-05-05T18:16:13.745Z,3.92
2023-05-05T18:18:41.775Z,4.20
2023-05-05T18:21:12.256Z,3.58
2023-05-05T18:23:39.908Z,3.80
2023-05-05T18:26:07.751Z,3.90
2023-05-05T18:28:35.367Z,4.05
2023-05-05T18:31:02.956Z,3.55
2023-05-05T18:33:31.771Z,4.40
2023-05-05T18:35:59.383Z,3.95
2023-05-05T18:38:26.941Z,4.43
2023-05-05T18:40:54.645Z,4.13
2023-05-05T18:43:22.061Z,4.55
2023-05-05T18:45:49.677Z,5.38
2023-05-05T18:48:17.171Z,4.70
2023-05-05T18:50:46.985Z,5.00
2023-05-05T18:53:14.977Z,4.95
2023-05-05T18:55:43.458Z,4.32
2023-05-05T18:58:11.122Z,4.30
2023-05-05T19:00:39.367Z,4.53
2023-05-05T19:03:07.082Z,5.10
2023-05-05T19:05:34.699Z,4.78
2023-05-05T19:08:03.523Z,4.90
2023-05-05T19:10:31.280Z,4.80
2023-05-05T19:12:59.036Z,4.93
2023-05-05T19:15:26.817Z,5.18
2023-05-05T19:17:54.485Z,4.70
2023-05-05T19:20:22.846Z,5.38
2023-05-05T19:22:50.494Z,4.57
2023-05-05T19:25:19.647Z,4.60
2023-05-05T19:27:47.085Z,4.95
2023-05-05T19:30:14.933Z,4.70
2023-05-05T19:32:42.562Z,4.63
2023-05-05T19:35:11.742Z,5.57
2023-05-05T19:37:39.603Z,5.20
2023-05-05T19:40:08.392Z,4.72
2023-05-05T19:42:37.657Z,5.40
2023-05-05T19:45:06.215Z,4.78
2023-05-05T19:47:33.692Z,5.13
2023-05-05T19:50:01.578Z,5.07
2023-05-05T19:52:29.157Z,5.25
2023-05-05T19:54:57.151Z,4.88
2023-05-05T19:57:24.587Z,5.55
2023-05-05T19:59:53.565Z,5.18
2023-05-05T20:02:22.135Z,5.78
2023-05-05T20:04:50.181Z,5.07
2023-05-05T20:07:17.898Z,5.20
2023-05-05T20:09:45.612Z,4.40
2023-05-05T20:12:13.558Z,5.32
2023-05-05T20:14:41.610Z,4.95
2023-05-05T20:17:10.386Z,4.97
2023-05-05T20:19:37.936Z,5.07
2023-05-05T20:22:05.499Z,4.70
2023-05-05T20:24:34.022Z,5.20
2023-05-05T20:27:02.026Z,4.70
2023-05-05T20:29:29.621Z,5.13
2023-05-05T20:31:57.328Z,5.28
2023-05-05T20:34:27.746Z,5.15
2023-05-05T20:36:55.502Z,4.80
2023-05-05T20:39:23.046Z,4.32
2023-05-05T20:41:50.552Z,4.88
2023-05-05T20:44:18.055Z,4.18
2023-05-05T20:46:45.615Z,5.30
2023-05-05T20:49:13.099Z,4.22
2023-05-05T20:51:41.907Z,4.85
2023-05-05T20:54:10.153Z,5.07
2023-05-05T20:56:37.614Z,5.03
2023-05-05T20:59:05.118Z,5.57
2023-05-05T21:01:32.791Z,6.03
2023-05-05T21:04:01.434Z,6.40
2023-05-05T21:06:28.845Z,6.40
2023-05-05T21:08:57.618Z,6.82
2023-05-05T21:11:25.113Z,7.10
2023-05-05T21:13:52.571Z,6.53
2023-05-05T21:16:20.104Z,6.82
2023-05-05T21:18:47.620Z,6.55
2023-05-05T21:21:15.085Z,6.60
2023-05-05T21:23:42.520Z,7.55
2023-05-05T21:26:11.367Z,6.90
2023-05-05T21:28:38.971Z,7.10
2023-05-05T21:31:21.184Z,6.30
2023-05-05T21:33:49.646Z,6.72
2023-05-05T21:36:18.948Z,6.88
2023-05-05T21:38:46.499Z,6.75
2023-05-05T21:41:15.266Z,5.93
2023-05-05T21:43:42.725Z,5.60
2023-05-05T21:46:10.296Z,6.00
2023-05-05T21:48:38.865Z,5.55
2023-05-05T21:51:06.743Z,6.40
2023-05-05T21:53:34.259Z,5.63
2023-05-05T21:56:02.308Z,5.43
2023-05-05T21:58:31.124Z,5.85
2023-05-05T22:00:58.619Z,5.50
2023-05-05T22:03:26.372Z,5.70
2023-05-05T22:05:53.937Z,6.43
2023-05-05T22:08:21.462Z,5.88
2023-05-05T22:10:48.931Z,5.80
2023-05-05T22:13:16.580Z,6.18
2023-05-05T22:15:47.445Z,5.88
2023-05-05T22:18:15.451Z,6.60
2023-05-05T22:20:43.305Z,5.78
2023-05-05T22:23:10.830Z,5.78
2023-05-05T22:25:38.331Z,6.40
2023-05-05T22:28:05.876Z,5.97
2023-05-05T22:30:33.405Z,6.55
2023-05-05T22:33:02.229Z,6.22
2023-05-05T22:35:29.910Z,6.05
2023-05-05T22:37:57.510Z,6.38
2023-05-05T22:40:25.022Z,6.38
2023-05-05T22:42:52.979Z,6.55
2023-05-05T22:45:20.841Z,7.03
2023-05-05T22:47:48.328Z,6.45
2023-05-05T22:50:17.170Z,6.20
2023-05-05T22:52:44.618Z,6.43
2023-05-05T22:55:14.001Z,6.78
2023-05-05T22:57:41.938Z,6.80
2023-05-05T23:00:10.735Z,7.13
2023-05-05T23:02:38.943Z,7.47
2023-05-05T23:05:07.665Z,8.13
2023-05-05T23:07:36.872Z,7.40
2023-05-05T23:10:04.971Z,7.88
2023-05-05T23:12:32.599Z,6.80
2023-05-05T23:15:00.056Z,8.52
2023-05-05T23:17:27.576Z,7.80
2023-05-05T23:19:55.049Z,7.30
2023-05-05T23:22:22.505Z,7.60
2023-05-05T23:24:51.278Z,7.88
2023-05-05T23:27:18.754Z,8.52
2023-05-05T23:29:46.212Z,7.80
2023-05-05T23:32:13.689Z,8.25
2023-05-05T23:34:41.394Z,7.90
2023-05-05T23:37:08.812Z,8.38
2023-05-05T23:39:36.264Z,7.95
2023-05-05T23:42:05.166Z,8.60
2023-05-05T23:44:32.638Z,8.68
2023-05-05T23:47:00.123Z,7.85
2023-05-05T23:49:27.611Z,8.48
2023-05-05T23:51:55.053Z,7.70
2023-05-05T23:54:22.487Z,8.15
2023-05-05T23:56:49.955Z,9.50
2023-05-05T23:59:18.781Z,7.68
